• Join FlightAware (Why Join?)
  • Login
  • US Flag 
12:39PM EDT


 

Airport Tracker/Info


-or-


 

Live Flight TrackerFlight Track Log ✈ AWI53A ✈ 22-Apr-2013 ✈ KDCA - KCHS

Flight Track Log - Related Links

Times and Time Zones

All times are in EDT time to prevent confusion due to time zone crossing. See the AWI53A flight status page for this flight to view local times or setup timezone preferences in your user account.

Time Position Orientation Groundspeed Altitude Reporting Facility
EDT Latitude Longitude Course Direction KTS MPH feet Rate Location/Type
09:10AM 38.8833 -77.0667 171° South 166 191 1,800  Level Potomac TRACON
09:11AM 38.9167 -77.1167 311° West 215 247 4,200 2,220 Climbing Potomac TRACON
09:12AM 38.9667 -77.1667 322° Northwest 272 313 6,300 2,340 Climbing Potomac TRACON
09:12AM 39.0333 -77.2000 339° North 285 328 8,700 2,340 Climbing Potomac TRACON
09:13AM 39.0667 -77.1167 63° Northeast 310 357 10,800 1,680 Climbing Potomac TRACON
09:14AM 39.0167 -77.0333 128° Southeast 343 395 12,000 1,560 Climbing Potomac TRACON
09:15AM 38.4653 -76.7031 171° South  Level FlightAware Approximate
09:15AM 38.9500 -76.9500 136° Southeast 354 407 13,800  Level Potomac TRACON
09:17AM 38.7631 -76.8483 157° South 395 455 17,200 1,440 Climbing Washington Center
09:18AM 38.6636 -76.7908 156° South 390 449 18,300 600 Climbing Washington Center
09:19AM 38.5619 -76.7333 156° South 395 455 18,500 480 Climbing Washington Center
09:20AM 38.4453 -76.7131 172° South 405 466 19,300 1,200 Climbing Washington Center
09:21AM 38.3308 -76.6981 174° South 412 474 21,000 1,620 Climbing Washington Center
09:22AM 38.2119 -76.6778 172° South 401 461 22,600 960 Climbing Washington Center
09:23AM 38.1017 -76.6658 175° South 401 461 23,000 180 Climbing Washington Center
09:24AM 37.9872 -76.6508 174° South 406 467 23,000  Level Washington Center
09:25AM 37.8722 -76.6572 183° South 406 467 23,000 480 Level Washington Center
09:26AM 37.7658 -76.6714 186° South 406 467 24,000 1,080 Climbing Washington Center
09:27AM 37.6594 -76.6831 185° South 396 456 25,200 960 Climbing Washington Center
09:28AM 37.5550 -76.6972 186° South 390 449 26,000 360 Climbing Washington Center
09:29AM 37.4525 -76.7142 187° South 384 442 26,000  Level Washington Center
09:30AM 37.3542 -76.7492 196° South 374 430 26,000  Level Washington Center
09:31AM 37.2661 -76.7869 199° South 374 430 26,000  Level Washington Center
09:32AM 37.1658 -76.8272 198° South 380 437 26,000  Level Washington Center
09:33AM 37.0672 -76.8672 198° South 380 437 26,000  Level Washington Center
09:34AM 36.9708 -76.9072 198° South 380 437 26,000  Level Washington Center
09:35AM 36.8722 -76.9472 198° South 375 432 26,000  Level Washington Center
09:36AM 36.7739 -76.9894 199° South 375 432 26,000  Level Washington Center
09:37AM 36.6836 -77.0422 205° Southwest 370 426 26,000  Level Washington Center
09:38AM 36.6011 -77.1158 216° Southwest 364 419 26,000  Level Washington Center
09:39AM 36.5208 -77.1944 218° Southwest 369 425 26,000  Level Washington Center
09:40AM 36.4406 -77.2728 218° Southwest 375 432 26,000  Level Washington Center
09:41AM 36.3603 -77.3458 216° Southwest 369 425 26,000 -300 Level Washington Center
09:42AM 36.2778 -77.4239 217° Southwest 375 432 25,400 -840 Descending Washington Center
09:43AM 36.1972 -77.5017 218° Southwest 375 432 24,400 -720 Descending Washington Center
09:44AM 36.1125 -77.5794 217° Southwest 375 432 24,000 -240 Descending Washington Center
09:45AM 36.0278 -77.6594 217° Southwest 375 432 24,000  Level Washington Center
09:46AM 35.9386 -77.7367 215° Southwest 380 437 24,000  Level Washington Center
09:47AM 35.8497 -77.8061 212° Southwest 385 443 24,000  Level Washington Center
09:48AM 35.7608 -77.8753 212° Southwest 385 443 24,000  Level Washington Center
09:49AM 35.6719 -77.9444 212° Southwest 385 443 24,000  Level Washington Center
09:50AM 35.5828 -78.0131 212° Southwest 380 437 24,000 -240 Level Washington Center
09:51AM 35.4917 -78.0819 212° Southwest 380 437 23,600 -540 Descending Washington Center
09:52AM 35.4006 -78.1556 213° Southwest 386 444 23,000 -300 Descending Washington Center
09:53AM 35.3050 -78.2289 212° Southwest 398 458 23,000  Level Washington Center
09:54AM 35.2136 -78.2994 212° Southwest 398 458 23,000  Level Washington Center
09:55AM 35.1222 -78.3700 212° Southwest 393 452 23,000  Level Washington Center
09:56AM 35.0331 -78.4381 212° Southwest 393 452 23,000  Level Washington Center
09:57AM 34.9436 -78.5083 213° Southwest 393 452 23,000 -420 Level Washington Center
09:59AM 34.7947 -78.6228 212° Southwest 397 457 22,000 -420 Descending Jacksonville Center
10:00AM 34.7050 -78.6878 211° Southwest 397 457 22,000  Level Jacksonville Center
10:01AM 34.6156 -78.7578 213° Southwest 397 457 22,000  Level Jacksonville Center
10:02AM 34.5261 -78.8253 212° Southwest 392 451 22,000  Level Jacksonville Center
10:03AM 34.4386 -78.8947 213° Southwest 387 445 22,000  Level Jacksonville Center
10:04AM 34.3511 -78.9642 213° Southwest 382 440 22,000  Level Jacksonville Center
10:05AM 34.2592 -79.0261 209° Southwest 382 440 22,000  Level Jacksonville Center
10:06AM 34.1603 -79.0706 200° South 377 434 22,000  Level Jacksonville Center
10:07AM 34.0617 -79.1175 202° Southwest 382 440 22,000 -300 Level Jacksonville Center
10:08AM 33.9689 -79.1592 200° South 376 433 21,500 -900 Descending Jacksonville Center
10:09AM 33.8886 -79.1950 200° South 344 396 20,200 -1,380 Descending Jacksonville Center
10:10AM 33.8083 -79.2283 199° South 316 364 18,800 -1,080 Descending Jacksonville Center
10:11AM 33.7283 -79.2817 209° Southwest 316 364 18,100 -1,200 Descending Jacksonville Center
10:12AM 33.6528 -79.3397 213° Southwest 311 358 16,500 -1,500 Descending Jacksonville Center
10:13AM 33.5772 -79.3950 211° Southwest 311 358 15,100 -1,440 Descending Jacksonville Center
10:14AM 33.5058 -79.4528 214° Southwest 316 364 13,700 -1,440 Descending Jacksonville Center
10:15AM 33.4236 -79.5081 209° Southwest 322 371 12,300 -1,380 Descending Jacksonville Center
10:16AM 33.3461 -79.5708 214° Southwest 332 382 11,000 -660 Descending Jacksonville Center
10:17AM 33.2744 -79.6231 211° Southwest 332 382 11,000 -420 Level Jacksonville Center
10:18AM 33.2028 -79.6753 211° Southwest 322 371 10,200 -1,020 Descending Jacksonville Center
10:19AM 33.1372 -79.7247 212° Southwest 303 349 9,000 -1,380 Descending Jacksonville Center
10:20AM 33.0717 -79.7717 211° Southwest 291 335 7,500 -1,560 Descending Jacksonville Center
10:21AM 33.0039 -79.8236 213° Southwest 286 329 5,900 -1,260 Descending Jacksonville Center
10:22AM 32.9294 -79.8436 193° South 286 329 5,000 -1,140 Descending Jacksonville Center
10:23AM 32.8503 -79.8586 189° South 281 323 3,700 -1,140 Descending Jacksonville Center
10:24AM 32.8164 -79.9239 238° Southwest 254 292 2,800 -720 Descending Jacksonville Center
10:25AM 32.7825 -79.9917 239° Southwest 246 283 2,300 -540 Descending Jacksonville Center
10:27AM 32.8792 -80.0323 348° North  Level FlightAware Approximate
10:34AM 32.8833 -80.0333 348° North  Level FlightAware Approximate
10:35AM 32.8986 -80.0405 348° North  Level Estimated
10:36AM 32.8986 -80.0405 348° North  Level Estimated
10:37AM 32.8986 -80.0405 348° North  Level Estimated
10:38AM 32.8986 -80.0405 348° North  Level Estimated